createdAt,value
2017-07-15T00:00:25.993Z,24.87
2017-07-15T00:02:54.340Z,25.97
2017-07-15T00:05:22.728Z,26.20
2017-07-15T00:07:51.405Z,25.60
2017-07-15T00:10:19.751Z,24.80
2017-07-15T00:12:48.089Z,25.57
2017-07-15T00:15:17.592Z,23.67
2017-07-15T00:17:45.937Z,23.30
2017-07-15T00:20:14.289Z,23.10
2017-07-15T00:22:43.136Z,24.23
2017-07-15T00:25:11.473Z,23.97
2017-07-15T00:27:39.811Z,23.67
2017-07-15T00:30:08.473Z,25.13
2017-07-15T00:32:36.827Z,24.87
2017-07-15T00:35:05.188Z,21.47
2017-07-15T00:37:34.254Z,22.30
2017-07-15T00:40:02.583Z,21.73
2017-07-15T00:42:30.900Z,21.83
2017-07-15T00:45:00.279Z,22.10
2017-07-15T00:47:28.631Z,22.63
2017-07-15T00:49:56.957Z,22.60
2017-07-15T00:52:26.402Z,21.53
2017-07-15T00:54:54.746Z,22.60
2017-07-15T00:57:23.851Z,21.10
2017-07-15T00:59:52.770Z,21.30
2017-07-15T01:02:21.114Z,21.60
2017-07-15T01:04:49.462Z,21.47
2017-07-15T01:07:18.078Z,20.67
2017-07-15T01:09:46.436Z,20.47
2017-07-15T01:12:14.786Z,19.80
2017-07-15T01:14:43.520Z,19.67
2017-07-15T01:17:11.859Z,18.77
2017-07-15T01:19:40.196Z,18.47
2017-07-15T01:22:09.177Z,19.53
2017-07-15T01:24:37.515Z,19.20
2017-07-15T01:27:05.855Z,19.70
2017-07-15T01:29:34.476Z,18.73
2017-07-15T01:32:02.827Z,18.10
2017-07-15T01:34:31.171Z,19.07
2017-07-15T01:36:59.867Z,17.47
2017-07-15T01:39:28.230Z,19.17
2017-07-15T01:41:56.593Z,16.33
2017-07-15T01:44:25.562Z,16.70
2017-07-15T01:46:53.932Z,17.40
2017-07-15T01:49:22.252Z,15.10
2017-07-15T01:51:51.145Z,16.70
2017-07-15T01:54:19.503Z,15.37
2017-07-15T01:56:47.889Z,14.73
2017-07-15T01:59:16.554Z,14.00
2017-07-15T02:01:44.896Z,14.10
2017-07-15T02:04:13.237Z,13.23
2017-07-15T02:06:42.054Z,12.60
2017-07-15T02:09:10.404Z,12.33
2017-07-15T02:11:38.779Z,13.77
2017-07-15T02:14:07.703Z,14.30
2017-07-15T02:16:36.028Z,14.57
2017-07-15T02:19:04.378Z,15.13
2017-07-15T02:21:33.339Z,13.33
2017-07-15T02:24:01.713Z,13.70
2017-07-15T02:26:30.079Z,13.53
2017-07-15T02:28:59.095Z,12.37
2017-07-15T02:31:27.456Z,13.50
2017-07-15T02:33:55.802Z,12.00
2017-07-15T02:36:24.645Z,11.37
2017-07-15T02:38:52.973Z,11.70
2017-07-15T02:41:21.313Z,10.90
2017-07-15T02:43:50.207Z,12.37
2017-07-15T02:46:18.559Z,10.60
2017-07-15T02:48:47.895Z,10.80
2017-07-15T02:51:16.572Z,9.77
2017-07-15T02:53:44.924Z,10.30
2017-07-15T02:56:14.025Z,10.67
2017-07-15T02:58:43.476Z,11.80
2017-07-15T03:01:11.831Z,11.57
2017-07-15T03:03:40.171Z,10.33
2017-07-15T03:06:09.141Z,10.53
2017-07-15T03:08:37.529Z,10.10
2017-07-15T03:11:05.858Z,10.10
2017-07-15T03:13:34.753Z,11.67
2017-07-15T03:16:03.101Z,12.03
2017-07-15T03:18:32.202Z,10.60
2017-07-15T03:21:01.006Z,11.17
2017-07-15T03:23:29.329Z,11.07
2017-07-15T03:25:57.697Z,13.40
2017-07-15T03:28:26.358Z,12.60
2017-07-15T03:30:54.735Z,12.40
2017-07-15T03:33:23.092Z,12.20
2017-07-15T03:35:52.058Z,13.30
2017-07-15T03:38:20.407Z,13.00
2017-07-15T03:40:48.747Z,12.57
2017-07-15T03:43:17.533Z,13.37
2017-07-15T03:45:45.874Z,12.50
2017-07-15T03:48:14.198Z,11.60
2017-07-15T03:50:43.632Z,12.90
2017-07-15T03:53:11.961Z,12.60
2017-07-15T03:55:40.293Z,12.33
2017-07-15T03:58:09.031Z,13.10
2017-07-15T04:00:37.371Z,12.40
2017-07-15T04:03:05.712Z,12.10
2017-07-15T04:05:34.375Z,12.70
2017-07-15T04:08:02.710Z,12.70
2017-07-15T04:10:31.063Z,12.30
2017-07-15T04:12:59.919Z,13.27
2017-07-15T04:15:28.260Z,13.00
2017-07-15T04:17:56.626Z,13.47
2017-07-15T04:20:25.786Z,12.60
2017-07-15T04:22:54.143Z,12.77
2017-07-15T04:25:22.473Z,13.27
2017-07-15T04:27:51.241Z,13.27
2017-07-15T04:30:19.620Z,12.63
2017-07-15T04:32:48.719Z,13.53
2017-07-15T04:35:17.337Z,13.37
2017-07-15T04:37:45.692Z,14.80
2017-07-15T04:40:14.040Z,14.47
2017-07-15T04:42:42.954Z,14.13
2017-07-15T04:45:11.332Z,13.50
2017-07-15T04:47:40.413Z,13.80
2017-07-15T04:50:10.039Z,13.70
2017-07-15T04:52:38.366Z,14.13
2017-07-15T04:55:06.698Z,14.03
2017-07-15T04:57:35.473Z,13.27
2017-07-15T05:00:03.812Z,13.77
2017-07-15T05:02:32.131Z,13.87
2017-07-15T05:05:01.743Z,14.50
2017-07-15T05:07:30.109Z,13.10
2017-07-15T05:09:59.210Z,13.70
2017-07-15T05:12:28.692Z,13.83
2017-07-15T05:14:57.025Z,12.40
2017-07-15T05:17:25.362Z,13.53
2017-07-15T05:19:54.045Z,14.13
2017-07-15T05:22:22.374Z,14.23
2017-07-15T05:24:50.713Z,14.67
2017-07-15T05:27:20.543Z,14.10
2017-07-15T05:29:48.890Z,12.40
2017-07-15T05:32:17.237Z,13.53
2017-07-15T05:34:45.876Z,14.13
2017-07-15T05:37:14.985Z,13.50
2017-07-15T05:39:43.368Z,14.07
2017-07-15T05:42:12.047Z,13.37
2017-07-15T05:44:40.379Z,12.67
2017-07-15T05:47:08.724Z,12.10
2017-07-15T05:49:38.302Z,13.07
2017-07-15T05:52:06.655Z,11.83
2017-07-15T05:54:35.010Z,12.37
2017-07-15T05:57:03.692Z,12.70
2017-07-15T05:59:32.021Z,13.10
2017-07-15T06:02:00.350Z,11.80
2017-07-15T06:04:29.007Z,12.80
2017-07-15T06:06:57.348Z,12.77
2017-07-15T06:09:25.705Z,12.83
2017-07-15T06:11:54.506Z,12.87
2017-07-15T06:14:22.872Z,12.97
2017-07-15T06:16:51.229Z,12.33
2017-07-15T06:19:20.089Z,12.60
2017-07-15T06:21:48.444Z,12.93
2017-07-15T06:24:16.798Z,12.87
2017-07-15T06:26:45.730Z,13.53
2017-07-15T06:29:14.095Z,12.43
2017-07-15T06:31:42.436Z,13.27
2017-07-15T06:34:11.589Z,11.63
2017-07-15T06:36:39.922Z,12.43
2017-07-15T06:39:08.269Z,12.00
2017-07-15T06:41:36.970Z,10.40
2017-07-15T06:44:05.320Z,11.20
2017-07-15T06:46:33.667Z,11.70
2017-07-15T06:49:02.450Z,11.93
2017-07-15T06:51:30.834Z,10.40
2017-07-15T06:53:59.175Z,11.00
2017-07-15T06:56:28.152Z,10.00
2017-07-15T06:58:56.500Z,10.67
2017-07-15T07:01:25.627Z,9.63
2017-07-15T07:03:54.291Z,9.30
2017-07-15T07:06:23.404Z,11.73
2017-07-15T07:08:51.755Z,10.70
2017-07-15T07:11:20.385Z,10.00
2017-07-15T07:13:48.751Z,9.70
2017-07-15T07:16:17.091Z,10.80
2017-07-15T07:18:46.330Z,10.50
2017-07-15T07:21:14.662Z,10.97
2017-07-15T07:23:42.989Z,10.13
2017-07-15T07:26:11.677Z,10.27
2017-07-15T07:28:40.015Z,10.77
2017-07-15T07:31:08.335Z,9.50
2017-07-15T07:33:36.988Z,9.00
2017-07-15T07:36:05.334Z,7.43
2017-07-15T07:38:33.706Z,7.60
2017-07-15T07:41:02.591Z,7.30
2017-07-15T07:43:30.981Z,7.23
2017-07-15T07:45:59.301Z,7.53
2017-07-15T07:48:28.724Z,6.90
2017-07-15T07:50:57.077Z,7.70
2017-07-15T07:53:25.448Z,7.47
2017-07-15T07:55:54.070Z,8.33
2017-07-15T07:58:22.457Z,7.80
2017-07-15T08:00:50.795Z,8.47
2017-07-15T08:03:19.811Z,7.40
2017-07-15T08:05:48.155Z,6.37
2017-07-15T08:08:16.489Z,6.60
2017-07-15T08:10:45.283Z,7.30
2017-07-15T08:13:13.616Z,6.73
2017-07-15T08:15:41.972Z,7.03
2017-07-15T08:18:10.891Z,6.27
2017-07-15T08:20:39.215Z,6.27
2017-07-15T08:25:42.911Z,5.17
2017-07-15T08:28:11.278Z,5.67
2017-07-15T08:30:40.391Z,5.67
2017-07-15T08:33:09.150Z,4.90
2017-07-15T08:35:37.511Z,4.90
2017-07-15T08:38:05.845Z,5.57
2017-07-15T08:40:34.611Z,4.77
2017-07-15T08:43:02.978Z,5.93
2017-07-15T08:45:32.085Z,4.73
2017-07-15T08:48:00.797Z,4.60
2017-07-15T08:50:29.143Z,4.77
2017-07-15T08:52:57.936Z,4.30
2017-07-15T08:55:26.784Z,4.97
2017-07-15T08:57:55.128Z,4.30
2017-07-15T09:00:23.475Z,5.33
2017-07-15T09:02:52.370Z,5.00
2017-07-15T09:05:20.704Z,4.90
2017-07-15T09:07:49.046Z,4.53
2017-07-15T09:10:17.989Z,4.63
2017-07-15T09:12:46.343Z,4.70
2017-07-15T09:15:14.672Z,4.80
2017-07-15T09:17:44.297Z,4.63
2017-07-15T09:20:12.622Z,3.97
2017-07-15T09:22:40.950Z,4.73
2017-07-15T09:25:09.736Z,4.17
2017-07-15T09:27:38.080Z,4.53
2017-07-15T09:30:06.422Z,3.73
2017-07-15T09:32:35.621Z,4.30
2017-07-15T09:35:03.961Z,4.47
2017-07-15T09:37:32.286Z,3.90
2017-07-15T09:40:01.035Z,3.70
2017-07-15T09:42:29.375Z,4.27
2017-07-15T09:44:57.698Z,3.77
2017-07-15T09:47:26.410Z,4.97
2017-07-15T09:49:54.738Z,3.40
2017-07-15T09:52:23.063Z,3.03
2017-07-15T09:54:51.842Z,3.50
2017-07-15T09:57:20.175Z,4.33
2017-07-15T09:59:48.519Z,3.60
2017-07-15T10:02:17.166Z,4.40
2017-07-15T10:04:45.481Z,3.40
2017-07-15T10:07:13.903Z,3.17
2017-07-15T10:09:42.527Z,3.67
2017-07-15T10:12:10.868Z,3.47
2017-07-15T10:14:39.199Z,2.40
2017-07-15T10:17:08.121Z,3.27
2017-07-15T10:19:36.476Z,2.20
2017-07-15T10:22:04.816Z,2.50
2017-07-15T10:24:33.425Z,3.23
2017-07-15T10:27:01.803Z,3.27
2017-07-15T10:29:30.155Z,2.63
2017-07-15T10:31:59.159Z,2.43
2017-07-15T10:34:27.516Z,2.57
2017-07-15T10:36:56.628Z,2.80
2017-07-15T10:39:25.453Z,2.20
2017-07-15T10:41:53.816Z,2.60
2017-07-15T10:44:22.160Z,2.40
2017-07-15T10:46:50.798Z,3.00
2017-07-15T10:49:19.135Z,3.20
2017-07-15T10:51:47.486Z,2.90
2017-07-15T10:54:16.211Z,3.27
2017-07-15T10:56:44.555Z,2.80
2017-07-15T10:59:12.878Z,3.00
2017-07-15T11:01:41.858Z,3.37
2017-07-15T11:04:10.223Z,2.80
2017-07-15T11:06:38.578Z,2.80
2017-07-15T11:09:07.400Z,2.30
2017-07-15T11:11:35.820Z,2.40
2017-07-15T11:14:04.171Z,3.00
2017-07-15T11:16:32.848Z,3.07
2017-07-15T11:19:01.204Z,2.50
2017-07-15T11:21:29.560Z,2.60
2017-07-15T11:23:58.641Z,2.17
2017-07-15T11:26:27.010Z,2.10
2017-07-15T11:28:55.378Z,2.00
2017-07-15T11:31:24.148Z,2.10
2017-07-15T11:33:52.501Z,2.30
2017-07-15T11:36:20.834Z,2.03
2017-07-15T11:38:49.571Z,2.00
2017-07-15T11:41:17.903Z,1.97
2017-07-15T11:43:46.220Z,2.07
2017-07-15T11:46:15.758Z,2.17
2017-07-15T11:48:44.087Z,1.97
2017-07-15T11:51:12.430Z,1.73
2017-07-15T11:53:41.095Z,2.03
2017-07-15T11:56:09.456Z,1.93
2017-07-15T11:58:37.769Z,1.80
2017-07-15T12:01:06.533Z,2.57
2017-07-15T12:03:34.882Z,1.87
2017-07-15T12:06:03.220Z,2.10
2017-07-15T12:08:32.148Z,1.40
2017-07-15T12:11:00.519Z,1.80
2017-07-15T12:13:28.842Z,1.63
2017-07-15T12:15:58.303Z,2.37
2017-07-15T12:18:26.645Z,2.13
2017-07-15T12:20:54.978Z,1.73
2017-07-15T12:23:23.633Z,2.40
2017-07-15T12:25:51.972Z,1.87
2017-07-15T12:28:20.362Z,3.13
2017-07-15T12:30:49.360Z,2.00
2017-07-15T12:33:17.722Z,2.33
2017-07-15T12:35:46.063Z,2.80
2017-07-15T12:38:14.869Z,2.90
2017-07-15T12:40:43.212Z,3.27
2017-07-15T12:43:11.556Z,3.23
2017-07-15T12:45:40.461Z,3.23
2017-07-15T12:48:08.805Z,2.70
2017-07-15T12:50:37.924Z,3.53
2017-07-15T12:53:07.109Z,3.20
2017-07-15T12:55:35.462Z,3.33
2017-07-15T12:58:03.780Z,3.10
2017-07-15T13:00:32.597Z,3.50
2017-07-15T13:03:00.948Z,3.37
2017-07-15T13:05:29.315Z,3.43
2017-07-15T13:07:57.987Z,4.37
2017-07-15T13:10:26.333Z,3.60
2017-07-15T13:12:54.668Z,3.53
2017-07-15T13:15:23.659Z,3.70
2017-07-15T13:17:51.987Z,3.30
2017-07-15T13:20:20.525Z,2.80
2017-07-15T13:22:49.190Z,4.20
2017-07-15T13:25:18.296Z,3.00
2017-07-15T13:27:47.395Z,3.00
2017-07-15T13:30:16.795Z,3.00
2017-07-15T13:32:45.157Z,3.63
2017-07-15T13:35:13.508Z,2.60
2017-07-15T13:37:42.474Z,2.83
2017-07-15T13:40:10.810Z,2.23
2017-07-15T13:42:39.142Z,2.60
2017-07-15T13:45:07.928Z,2.20
2017-07-15T13:47:36.321Z,2.03
2017-07-15T13:50:04.651Z,2.70
2017-07-15T13:52:33.333Z,2.43
2017-07-15T13:55:01.671Z,2.70
2017-07-15T13:57:30.001Z,2.57
2017-07-15T13:59:59.001Z,2.80
2017-07-15T14:02:27.343Z,2.57
2017-07-15T14:04:55.695Z,2.57
2017-07-15T14:07:24.463Z,2.67
2017-07-15T14:09:52.799Z,2.40
2017-07-15T14:12:21.896Z,2.77
2017-07-15T14:14:51.280Z,3.03
2017-07-15T14:17:19.655Z,2.53
2017-07-15T14:19:48.017Z,2.77
2017-07-15T14:22:16.966Z,2.40
2017-07-15T14:24:45.282Z,2.60
2017-07-15T14:27:13.626Z,2.90
2017-07-15T14:29:42.267Z,2.77
2017-07-15T14:32:10.605Z,2.93
2017-07-15T14:34:38.950Z,3.20
2017-07-15T14:37:07.693Z,3.20
2017-07-15T14:39:36.043Z,2.13
2017-07-15T14:42:04.373Z,1.97
2017-07-15T14:44:33.316Z,2.17
2017-07-15T14:47:01.647Z,2.00
2017-07-15T14:49:30.001Z,2.00
2017-07-15T14:51:58.649Z,2.33
2017-07-15T14:54:26.999Z,1.90
2017-07-15T14:56:55.332Z,1.80
2017-07-15T14:59:24.198Z,1.70
2017-07-15T15:01:52.559Z,1.80
2017-07-15T15:04:21.654Z,2.00
2017-07-15T15:06:51.210Z,1.50
2017-07-15T15:09:19.550Z,1.43
2017-07-15T15:11:47.885Z,1.30
2017-07-15T15:14:16.734Z,1.43
2017-07-15T15:16:45.090Z,1.27
2017-07-15T15:19:14.209Z,1.57
2017-07-15T15:21:42.999Z,2.00
2017-07-15T15:24:11.354Z,1.67
2017-07-15T15:26:40.453Z,1.90
2017-07-15T15:29:09.972Z,1.70
2017-07-15T15:31:38.291Z,1.60
2017-07-15T15:34:06.623Z,1.80
2017-07-15T15:36:35.506Z,1.83
2017-07-15T15:39:03.839Z,2.63
2017-07-15T15:41:32.201Z,2.10
2017-07-15T15:44:00.862Z,1.60
2017-07-15T15:46:29.221Z,2.00
2017-07-15T15:48:57.553Z,1.90
2017-07-15T15:51:26.328Z,1.83
2017-07-15T15:53:54.669Z,1.70
2017-07-15T15:56:23.008Z,1.50
2017-07-15T15:58:51.628Z,1.67
2017-07-15T16:01:19.968Z,1.90
2017-07-15T16:03:48.302Z,1.53
2017-07-15T16:06:17.084Z,1.63
2017-07-15T16:08:45.465Z,1.90
2017-07-15T16:11:13.808Z,1.77
2017-07-15T16:13:42.581Z,1.87
2017-07-15T16:16:10.939Z,1.93
2017-07-15T16:18:39.266Z,1.30
2017-07-15T16:21:07.992Z,1.83
2017-07-15T16:23:36.322Z,1.77
2017-07-15T16:26:04.662Z,1.70
2017-07-15T16:28:33.440Z,2.03
2017-07-15T16:31:01.771Z,2.57
2017-07-15T16:33:30.125Z,1.90
2017-07-15T16:35:59.497Z,2.20
2017-07-15T16:38:27.809Z,1.53
2017-07-15T16:40:56.159Z,1.97
2017-07-15T16:43:24.786Z,1.70
2017-07-15T16:45:53.117Z,1.67
2017-07-15T16:48:21.451Z,1.97
2017-07-15T16:50:50.387Z,1.60
2017-07-15T16:53:18.735Z,2.17
2017-07-15T16:55:47.343Z,2.00
2017-07-15T16:58:16.228Z,1.90
2017-07-15T17:00:44.582Z,2.17
2017-07-15T17:03:12.918Z,2.30
2017-07-15T17:05:41.587Z,2.30
2017-07-15T17:08:09.918Z,2.30
2017-07-15T17:10:38.268Z,1.90
2017-07-15T17:13:06.924Z,3.00
2017-07-15T17:15:35.283Z,1.80
2017-07-15T17:18:04.379Z,2.17
2017-07-15T17:20:34.120Z,1.53
2017-07-15T17:23:02.456Z,2.27
2017-07-15T17:25:30.829Z,2.10
2017-07-15T17:27:59.644Z,1.90
2017-07-15T17:30:27.976Z,2.00
2017-07-15T17:32:56.316Z,1.90
2017-07-15T17:35:24.985Z,2.37
2017-07-15T17:37:54.113Z,2.60
2017-07-15T17:40:22.444Z,2.43
2017-07-15T17:42:51.395Z,2.10
2017-07-15T17:45:19.749Z,2.30
2017-07-15T17:47:48.111Z,2.83
2017-07-15T17:50:16.814Z,2.30
2017-07-15T17:52:45.162Z,2.93
2017-07-15T17:55:14.276Z,3.23
2017-07-15T17:57:44.296Z,2.63
2017-07-15T18:00:12.618Z,2.73
2017-07-15T18:02:40.955Z,2.53
2017-07-15T18:05:09.748Z,3.07
2017-07-15T18:07:38.108Z,2.53
2017-07-15T18:10:07.226Z,2.60
2017-07-15T18:12:36.005Z,2.50
2017-07-15T18:15:04.364Z,2.93
2017-07-15T18:17:32.695Z,2.60
2017-07-15T18:20:01.440Z,3.10
2017-07-15T18:22:29.803Z,3.47
2017-07-15T18:24:58.170Z,2.77
2017-07-15T18:27:27.093Z,3.00
2017-07-15T18:29:55.425Z,3.23
2017-07-15T18:32:23.758Z,3.00
2017-07-15T18:34:52.427Z,2.83
2017-07-15T18:37:21.523Z,3.67
2017-07-15T18:39:50.643Z,3.30
2017-07-15T18:42:19.305Z,2.97
2017-07-15T18:44:48.414Z,2.80
2017-07-15T18:47:16.777Z,3.00
2017-07-15T18:49:45.484Z,3.33
2017-07-15T18:52:13.821Z,3.33
2017-07-15T18:54:42.185Z,3.20
2017-07-15T18:57:10.942Z,3.20
2017-07-15T18:59:39.287Z,3.57
2017-07-15T19:02:07.636Z,3.47
2017-07-15T19:04:36.296Z,3.50
2017-07-15T19:07:04.641Z,3.97
2017-07-15T19:09:33.001Z,5.20
2017-07-15T19:12:02.035Z,5.20
2017-07-15T19:14:30.375Z,4.20
2017-07-15T19:16:58.722Z,4.33
2017-07-15T19:19:27.370Z,4.40
2017-07-15T19:21:56.483Z,4.10
2017-07-15T19:24:24.845Z,4.80
2017-07-15T19:26:53.485Z,4.90
2017-07-15T19:29:21.816Z,4.90
2017-07-15T19:31:50.150Z,4.00
2017-07-15T19:34:19.168Z,5.27
2017-07-15T19:36:47.499Z,4.90
2017-07-15T19:39:15.841Z,4.90
2017-07-15T19:41:44.474Z,4.40
2017-07-15T19:44:12.823Z,5.27
2017-07-15T19:46:41.160Z,6.40
2017-07-15T19:49:10.077Z,5.53
2017-07-15T19:51:38.402Z,5.60
2017-07-15T19:54:06.724Z,5.10
2017-07-15T19:56:35.466Z,5.30
2017-07-15T19:59:03.861Z,5.37
2017-07-15T20:01:32.195Z,4.77
2017-07-15T20:04:00.842Z,5.83
2017-07-15T20:06:29.950Z,5.00
2017-07-15T20:08:59.067Z,5.90
2017-07-15T20:11:27.833Z,5.23
2017-07-15T20:13:56.150Z,6.30
2017-07-15T20:16:24.504Z,7.40
2017-07-15T20:18:53.355Z,6.13
2017-07-15T20:21:21.681Z,6.00
2017-07-15T20:23:50.029Z,6.07
2017-07-15T20:26:18.969Z,6.20
2017-07-15T20:28:47.309Z,7.20
2017-07-15T20:31:15.672Z,6.43
2017-07-15T20:33:44.319Z,7.27
2017-07-15T20:36:18.234Z,6.03
2017-07-15T20:38:47.280Z,7.93
2017-07-15T20:41:15.617Z,9.90
2017-07-15T20:43:43.965Z,11.17
2017-07-15T20:46:12.622Z,17.60
2017-07-15T20:48:40.957Z,15.77
2017-07-15T20:51:09.309Z,13.30
2017-07-15T20:53:43.558Z,13.03
2017-07-15T20:56:11.891Z,8.37
2017-07-15T20:58:40.215Z,11.67
2017-07-15T21:01:09.110Z,7.80
2017-07-15T21:03:37.458Z,7.93
2017-07-15T21:06:05.794Z,7.00
2017-07-15T21:08:35.210Z,7.77
2017-07-15T21:11:03.545Z,7.17
2017-07-15T21:13:31.898Z,9.17
2017-07-15T21:16:00.686Z,8.70
2017-07-15T21:18:29.050Z,8.70
2017-07-15T21:20:57.372Z,8.63
2017-07-15T21:23:26.305Z,8.43
2017-07-15T21:25:54.650Z,9.00
2017-07-15T21:28:23.018Z,9.30
2017-07-15T21:30:51.747Z,8.40
2017-07-15T21:33:20.088Z,9.13
2017-07-15T21:35:48.429Z,8.33
2017-07-15T21:38:17.188Z,9.43
2017-07-15T21:40:45.521Z,9.07
2017-07-15T21:43:13.874Z,10.40
2017-07-15T21:45:42.555Z,9.30
2017-07-15T21:48:10.897Z,9.03
2017-07-15T21:50:39.224Z,9.10
2017-07-15T21:53:08.078Z,9.33
2017-07-15T21:55:36.451Z,9.03
2017-07-15T21:58:04.802Z,8.83
2017-07-15T22:00:33.446Z,9.50
2017-07-15T22:03:01.790Z,8.53
2017-07-15T22:05:30.163Z,9.33
2017-07-15T22:07:58.838Z,7.90
2017-07-15T22:10:27.170Z,8.00
2017-07-15T22:12:55.508Z,7.23
2017-07-15T22:15:24.286Z,8.10
2017-07-15T22:17:52.623Z,8.67
2017-07-15T22:20:20.956Z,9.33
2017-07-15T22:22:49.651Z,9.53
2017-07-15T22:25:17.974Z,9.17
2017-07-15T22:27:46.307Z,10.00
2017-07-15T22:30:15.322Z,10.20
2017-07-15T22:32:43.671Z,9.67
2017-07-15T22:35:12.794Z,9.00
2017-07-15T22:37:41.565Z,8.87
2017-07-15T22:40:09.914Z,8.73
2017-07-15T22:42:38.269Z,9.87
2017-07-15T22:45:06.963Z,8.87
2017-07-15T22:47:35.295Z,8.50
2017-07-15T22:50:03.612Z,8.80
2017-07-15T22:52:32.656Z,9.33
2017-07-15T22:55:00.982Z,8.60
2017-07-15T22:57:29.307Z,9.90
2017-07-15T22:59:58.008Z,8.83
2017-07-15T23:02:26.357Z,8.37
2017-07-15T23:04:54.691Z,9.10
2017-07-15T23:07:23.302Z,8.80
2017-07-15T23:09:51.649Z,7.83
2017-07-15T23:12:19.980Z,8.60
2017-07-15T23:14:49.320Z,8.37
2017-07-15T23:17:17.743Z,8.53
2017-07-15T23:19:46.076Z,8.63
2017-07-15T23:22:14.805Z,9.13
2017-07-15T23:24:43.134Z,9.37
2017-07-15T23:27:11.461Z,9.63
2017-07-15T23:29:40.122Z,9.10
2017-07-15T23:32:08.459Z,9.80
2017-07-15T23:34:37.582Z,10.27
2017-07-15T23:37:06.567Z,9.07
2017-07-15T23:39:34.884Z,9.10
2017-07-15T23:42:03.216Z,9.10
2017-07-15T23:44:32.823Z,9.70
2017-07-15T23:47:01.143Z,9.60
2017-07-15T23:49:29.471Z,9.83
2017-07-15T23:51:58.903Z,9.60
2017-07-15T23:54:27.247Z,9.60
2017-07-15T23:56:56.378Z,9.97
2017-07-15T23:59:25.352Z,9.67
